sensor_id;sensor_type;location;lat;lon;timestamp;P1;durP1;ratioP1;P2;durP2;ratioP2
30818;SDS011;17546;42.674;23.284;2023-04-05T00:00:09;24.40;;;14.60;;
30818;SDS011;17546;42.674;23.284;2023-04-05T00:02:35;24.70;;;13.57;;
30818;SDS011;17546;42.674;23.284;2023-04-05T00:05:01;25.17;;;14.77;;
30818;SDS011;17546;42.674;23.284;2023-04-05T00:07:29;24.27;;;12.38;;
30818;SDS011;17546;42.674;23.284;2023-04-05T00:09:54;21.65;;;12.73;;
30818;SDS011;17546;42.674;23.284;2023-04-05T00:12:20;26.48;;;16.00;;
30818;SDS011;17546;42.674;23.284;2023-04-05T00:14:45;24.90;;;14.32;;
30818;SDS011;17546;42.674;23.284;2023-04-05T00:17:10;27.13;;;15.18;;
30818;SDS011;17546;42.674;23.284;2023-04-05T00:19:37;23.33;;;12.43;;
30818;SDS011;17546;42.674;23.284;2023-04-05T00:22:03;22.05;;;12.23;;
30818;SDS011;17546;42.674;23.284;2023-04-05T00:24:29;20.58;;;12.20;;
30818;SDS011;17546;42.674;23.284;2023-04-05T00:26:56;22.48;;;13.60;;
30818;SDS011;17546;42.674;23.284;2023-04-05T00:29:21;18.42;;;11.25;;
30818;SDS011;17546;42.674;23.284;2023-04-05T00:31:46;17.60;;;10.65;;
30818;SDS011;17546;42.674;23.284;2023-04-05T00:34:12;22.02;;;12.27;;
30818;SDS011;17546;42.674;23.284;2023-04-05T00:36:37;15.57;;;9.93;;
30818;SDS011;17546;42.674;23.284;2023-04-05T00:39:03;15.40;;;9.35;;
30818;SDS011;17546;42.674;23.284;2023-04-05T00:41:28;17.02;;;10.05;;
30818;SDS011;17546;42.674;23.284;2023-04-05T00:43:53;16.45;;;8.90;;
30818;SDS011;17546;42.674;23.284;2023-04-05T00:46:21;16.00;;;9.40;;
30818;SDS011;17546;42.674;23.284;2023-04-05T00:48:46;12.82;;;8.18;;
30818;SDS011;17546;42.674;23.284;2023-04-05T00:51:12;13.98;;;9.15;;
30818;SDS011;17546;42.674;23.284;2023-04-05T00:53:37;14.70;;;8.93;;
30818;SDS011;17546;42.674;23.284;2023-04-05T00:56:04;14.60;;;8.30;;
30818;SDS011;17546;42.674;23.284;2023-04-05T00:58:30;11.98;;;8.13;;
30818;SDS011;17546;42.674;23.284;2023-04-05T01:01:00;12.73;;;8.20;;
30818;SDS011;17546;42.674;23.284;2023-04-05T01:03:34;13.97;;;9.17;;
30818;SDS011;17546;42.674;23.284;2023-04-05T01:06:09;14.50;;;8.73;;
30818;SDS011;17546;42.674;23.284;2023-04-05T01:11:30;14.70;;;9.20;;
30818;SDS011;17546;42.674;23.284;2023-04-05T01:13:58;15.65;;;9.20;;
30818;SDS011;17546;42.674;23.284;2023-04-05T01:16:24;14.20;;;8.48;;
30818;SDS011;17546;42.674;23.284;2023-04-05T01:18:51;12.23;;;8.38;;
30818;SDS011;17546;42.674;23.284;2023-04-05T01:31:32;12.43;;;8.30;;
30818;SDS011;17546;42.674;23.284;2023-04-05T01:36:44;11.23;;;7.00;;
30818;SDS011;17546;42.674;23.284;2023-04-05T01:39:21;8.45;;;6.03;;
30818;SDS011;17546;42.674;23.284;2023-04-05T01:41:48;8.05;;;5.50;;
30818;SDS011;17546;42.674;23.284;2023-04-05T01:44:13;9.32;;;5.93;;
30818;SDS011;17546;42.674;23.284;2023-04-05T01:46:39;10.00;;;6.43;;
30818;SDS011;17546;42.674;23.284;2023-04-05T01:49:05;8.80;;;6.15;;
30818;SDS011;17546;42.674;23.284;2023-04-05T01:51:30;10.40;;;6.78;;
30818;SDS011;17546;42.674;23.284;2023-04-05T01:53:56;10.98;;;6.75;;
30818;SDS011;17546;42.674;23.284;2023-04-05T01:56:22;11.10;;;6.93;;
30818;SDS011;17546;42.674;23.284;2023-04-05T01:58:47;8.73;;;6.00;;
30818;SDS011;17546;42.674;23.284;2023-04-05T02:01:12;11.00;;;6.82;;
30818;SDS011;17546;42.674;23.284;2023-04-05T02:03:38;10.80;;;6.88;;
30818;SDS011;17546;42.674;23.284;2023-04-05T02:06:03;12.07;;;7.10;;
30818;SDS011;17546;42.674;23.284;2023-04-05T02:08:29;9.45;;;6.53;;
30818;SDS011;17546;42.674;23.284;2023-04-05T02:10:55;11.77;;;6.85;;
30818;SDS011;17546;42.674;23.284;2023-04-05T02:13:20;10.60;;;6.93;;
30818;SDS011;17546;42.674;23.284;2023-04-05T02:15:50;11.00;;;6.80;;
30818;SDS011;17546;42.674;23.284;2023-04-05T02:18:15;8.40;;;5.68;;
30818;SDS011;17546;42.674;23.284;2023-04-05T02:20:49;11.20;;;7.40;;
30818;SDS011;17546;42.674;23.284;2023-04-05T02:23:17;9.32;;;6.68;;
30818;SDS011;17546;42.674;23.284;2023-04-05T02:25:43;11.07;;;6.60;;
30818;SDS011;17546;42.674;23.284;2023-04-05T02:28:08;10.95;;;7.20;;
30818;SDS011;17546;42.674;23.284;2023-04-05T02:30:34;8.05;;;5.35;;
30818;SDS011;17546;42.674;23.284;2023-04-05T02:32:59;12.23;;;7.25;;
30818;SDS011;17546;42.674;23.284;2023-04-05T02:35:25;10.20;;;6.80;;
30818;SDS011;17546;42.674;23.284;2023-04-05T02:37:51;10.57;;;6.88;;
30818;SDS011;17546;42.674;23.284;2023-04-05T02:40:16;10.95;;;7.38;;
30818;SDS011;17546;42.674;23.284;2023-04-05T02:42:42;13.88;;;7.88;;
30818;SDS011;17546;42.674;23.284;2023-04-05T02:45:07;11.07;;;6.90;;
30818;SDS011;17546;42.674;23.284;2023-04-05T02:47:33;11.32;;;7.43;;
30818;SDS011;17546;42.674;23.284;2023-04-05T02:49:58;11.50;;;7.03;;
30818;SDS011;17546;42.674;23.284;2023-04-05T02:52:24;9.77;;;6.68;;
30818;SDS011;17546;42.674;23.284;2023-04-05T02:54:49;15.80;;;7.50;;
30818;SDS011;17546;42.674;23.284;2023-04-05T02:57:15;14.23;;;8.57;;
30818;SDS011;17546;42.674;23.284;2023-04-05T02:59:40;10.38;;;7.05;;
30818;SDS011;17546;42.674;23.284;2023-04-05T03:02:07;10.93;;;7.05;;
30818;SDS011;17546;42.674;23.284;2023-04-05T03:04:33;9.10;;;6.35;;
30818;SDS011;17546;42.674;23.284;2023-04-05T03:07:02;9.75;;;6.70;;
30818;SDS011;17546;42.674;23.284;2023-04-05T03:09:29;12.88;;;6.82;;
30818;SDS011;17546;42.674;23.284;2023-04-05T03:11:59;10.20;;;6.47;;
30818;SDS011;17546;42.674;23.284;2023-04-05T03:14:25;8.27;;;5.72;;
30818;SDS011;17546;42.674;23.284;2023-04-05T03:16:51;7.53;;;5.80;;
30818;SDS011;17546;42.674;23.284;2023-04-05T03:19:17;7.97;;;5.35;;
30818;SDS011;17546;42.674;23.284;2023-04-05T03:21:46;10.43;;;6.45;;
30818;SDS011;17546;42.674;23.284;2023-04-05T03:24:13;9.88;;;6.28;;
30818;SDS011;17546;42.674;23.284;2023-04-05T03:26:40;9.73;;;6.95;;
30818;SDS011;17546;42.674;23.284;2023-04-05T03:29:07;10.35;;;6.85;;
30818;SDS011;17546;42.674;23.284;2023-04-05T03:31:32;10.52;;;7.00;;
30818;SDS011;17546;42.674;23.284;2023-04-05T03:33:58;11.85;;;7.07;;
30818;SDS011;17546;42.674;23.284;2023-04-05T03:36:23;10.57;;;7.15;;
30818;SDS011;17546;42.674;23.284;2023-04-05T03:38:49;10.85;;;7.30;;
30818;SDS011;17546;42.674;23.284;2023-04-05T03:41:15;11.18;;;7.40;;
30818;SDS011;17546;42.674;23.284;2023-04-05T03:43:41;11.38;;;7.22;;
30818;SDS011;17546;42.674;23.284;2023-04-05T03:46:06;13.00;;;7.53;;
30818;SDS011;17546;42.674;23.284;2023-04-05T03:48:32;14.25;;;8.02;;
30818;SDS011;17546;42.674;23.284;2023-04-05T03:50:57;10.07;;;7.25;;
30818;SDS011;17546;42.674;23.284;2023-04-05T03:53:23;11.25;;;7.78;;
30818;SDS011;17546;42.674;23.284;2023-04-05T03:55:48;16.25;;;8.32;;
30818;SDS011;17546;42.674;23.284;2023-04-05T03:58:15;12.40;;;7.85;;
30818;SDS011;17546;42.674;23.284;2023-04-05T04:00:41;11.05;;;6.45;;
30818;SDS011;17546;42.674;23.284;2023-04-05T04:03:06;13.95;;;8.00;;
30818;SDS011;17546;42.674;23.284;2023-04-05T04:05:33;11.07;;;7.72;;
30818;SDS011;17546;42.674;23.284;2023-04-05T04:08:03;11.88;;;7.75;;
30818;SDS011;17546;42.674;23.284;2023-04-05T04:10:29;10.98;;;7.68;;
30818;SDS011;17546;42.674;23.284;2023-04-05T04:12:55;12.95;;;8.30;;
30818;SDS011;17546;42.674;23.284;2023-04-05T04:15:20;11.82;;;8.10;;
30818;SDS011;17546;42.674;23.284;2023-04-05T04:17:46;11.73;;;8.13;;
30818;SDS011;17546;42.674;23.284;2023-04-05T04:20:11;12.60;;;8.10;;
30818;SDS011;17546;42.674;23.284;2023-04-05T04:22:37;10.15;;;7.03;;
30818;SDS011;17546;42.674;23.284;2023-04-05T04:25:07;10.57;;;7.20;;
30818;SDS011;17546;42.674;23.284;2023-04-05T04:27:39;10.50;;;6.85;;
30818;SDS011;17546;42.674;23.284;2023-04-05T04:30:10;12.00;;;7.47;;
30818;SDS011;17546;42.674;23.284;2023-04-05T04:32:38;12.60;;;7.82;;
30818;SDS011;17546;42.674;23.284;2023-04-05T04:35:17;15.15;;;8.25;;
30818;SDS011;17546;42.674;23.284;2023-04-05T04:37:49;12.32;;;7.55;;
30818;SDS011;17546;42.674;23.284;2023-04-05T04:40:35;12.38;;;7.32;;
30818;SDS011;17546;42.674;23.284;2023-04-05T04:43:09;15.05;;;7.60;;
30818;SDS011;17546;42.674;23.284;2023-04-05T04:45:38;15.07;;;8.38;;
30818;SDS011;17546;42.674;23.284;2023-04-05T04:48:05;12.07;;;6.70;;
30818;SDS011;17546;42.674;23.284;2023-04-05T04:50:32;7.60;;;5.18;;
30818;SDS011;17546;42.674;23.284;2023-04-05T04:52:58;8.85;;;4.72;;
30818;SDS011;17546;42.674;23.284;2023-04-05T04:55:27;8.48;;;5.38;;
30818;SDS011;17546;42.674;23.284;2023-04-05T04:57:53;9.52;;;5.78;;
30818;SDS011;17546;42.674;23.284;2023-04-05T05:00:19;7.03;;;4.85;;
30818;SDS011;17546;42.674;23.284;2023-04-05T05:02:46;7.57;;;4.65;;
30818;SDS011;17546;42.674;23.284;2023-04-05T05:05:12;5.35;;;3.72;;
30818;SDS011;17546;42.674;23.284;2023-04-05T05:07:41;7.30;;;4.80;;
30818;SDS011;17546;42.674;23.284;2023-04-05T05:10:06;6.78;;;4.50;;
30818;SDS011;17546;42.674;23.284;2023-04-05T05:12:33;7.78;;;4.55;;
30818;SDS011;17546;42.674;23.284;2023-04-05T05:14:58;6.15;;;4.43;;
30818;SDS011;17546;42.674;23.284;2023-04-05T05:17:24;6.20;;;3.85;;
30818;SDS011;17546;42.674;23.284;2023-04-05T05:19:49;6.45;;;3.40;;
30818;SDS011;17546;42.674;23.284;2023-04-05T05:22:15;5.80;;;3.83;;
30818;SDS011;17546;42.674;23.284;2023-04-05T05:24:41;6.63;;;4.40;;
30818;SDS011;17546;42.674;23.284;2023-04-05T05:27:07;6.22;;;3.85;;
30818;SDS011;17546;42.674;23.284;2023-04-05T05:29:33;7.60;;;4.45;;
30818;SDS011;17546;42.674;23.284;2023-04-05T05:31:58;6.50;;;4.75;;
30818;SDS011;17546;42.674;23.284;2023-04-05T05:34:24;8.43;;;4.65;;
30818;SDS011;17546;42.674;23.284;2023-04-05T05:36:49;8.68;;;3.40;;
30818;SDS011;17546;42.674;23.284;2023-04-05T05:39:16;6.88;;;3.70;;
30818;SDS011;17546;42.674;23.284;2023-04-05T05:41:42;4.35;;;3.45;;
30818;SDS011;17546;42.674;23.284;2023-04-05T05:44:08;6.15;;;3.67;;
30818;SDS011;17546;42.674;23.284;2023-04-05T05:46:33;8.93;;;4.60;;
30818;SDS011;17546;42.674;23.284;2023-04-05T05:48:59;5.93;;;3.75;;
30818;SDS011;17546;42.674;23.284;2023-04-05T05:51:24;8.10;;;4.53;;
30818;SDS011;17546;42.674;23.284;2023-04-05T05:53:50;6.68;;;4.07;;
30818;SDS011;17546;42.674;23.284;2023-04-05T05:56:15;7.70;;;4.43;;
30818;SDS011;17546;42.674;23.284;2023-04-05T05:58:41;10.65;;;5.68;;
30818;SDS011;17546;42.674;23.284;2023-04-05T06:01:06;8.75;;;4.35;;
30818;SDS011;17546;42.674;23.284;2023-04-05T06:03:32;7.60;;;4.47;;
30818;SDS011;17546;42.674;23.284;2023-04-05T06:05:58;5.78;;;3.45;;
30818;SDS011;17546;42.674;23.284;2023-04-05T06:08:24;7.47;;;4.38;;
30818;SDS011;17546;42.674;23.284;2023-04-05T06:10:52;6.45;;;4.00;;
30818;SDS011;17546;42.674;23.284;2023-04-05T06:13:18;5.57;;;3.33;;
30818;SDS011;17546;42.674;23.284;2023-04-05T06:15:44;4.70;;;2.50;;
30818;SDS011;17546;42.674;23.284;2023-04-05T06:18:11;4.43;;;2.78;;
30818;SDS011;17546;42.674;23.284;2023-04-05T06:20:36;4.25;;;2.80;;
30818;SDS011;17546;42.674;23.284;2023-04-05T06:23:07;3.70;;;2.33;;
30818;SDS011;17546;42.674;23.284;2023-04-05T06:25:32;3.47;;;2.47;;
30818;SDS011;17546;42.674;23.284;2023-04-05T06:27:58;3.25;;;2.40;;
30818;SDS011;17546;42.674;23.284;2023-04-05T06:30:23;5.60;;;3.10;;
30818;SDS011;17546;42.674;23.284;2023-04-05T06:32:49;4.28;;;2.20;;
30818;SDS011;17546;42.674;23.284;2023-04-05T06:35:18;2.45;;;1.65;;
30818;SDS011;17546;42.674;23.284;2023-04-05T06:37:48;4.30;;;2.58;;
30818;SDS011;17546;42.674;23.284;2023-04-05T06:40:14;2.15;;;1.75;;
30818;SDS011;17546;42.674;23.284;2023-04-05T06:42:40;4.30;;;1.95;;
30818;SDS011;17546;42.674;23.284;2023-04-05T06:45:06;4.65;;;2.40;;
30818;SDS011;17546;42.674;23.284;2023-04-05T06:47:32;3.88;;;1.90;;
30818;SDS011;17546;42.674;23.284;2023-04-05T06:50:01;2.58;;;1.73;;
30818;SDS011;17546;42.674;23.284;2023-04-05T06:52:28;3.78;;;2.30;;
30818;SDS011;17546;42.674;23.284;2023-04-05T06:54:53;8.18;;;2.20;;
30818;SDS011;17546;42.674;23.284;2023-04-05T06:57:19;3.53;;;1.92;;
30818;SDS011;17546;42.674;23.284;2023-04-05T06:59:44;4.07;;;2.10;;
30818;SDS011;17546;42.674;23.284;2023-04-05T07:02:10;4.03;;;2.20;;
30818;SDS011;17546;42.674;23.284;2023-04-05T07:04:37;5.90;;;2.67;;
30818;SDS011;17546;42.674;23.284;2023-04-05T07:07:03;7.47;;;2.63;;
30818;SDS011;17546;42.674;23.284;2023-04-05T07:09:33;2.42;;;1.40;;
30818;SDS011;17546;42.674;23.284;2023-04-05T07:11:59;3.17;;;1.80;;
30818;SDS011;17546;42.674;23.284;2023-04-05T07:14:25;3.63;;;2.28;;
30818;SDS011;17546;42.674;23.284;2023-04-05T07:16:53;4.10;;;1.75;;
30818;SDS011;17546;42.674;23.284;2023-04-05T07:19:18;2.10;;;1.55;;
30818;SDS011;17546;42.674;23.284;2023-04-05T07:21:44;2.38;;;1.55;;
30818;SDS011;17546;42.674;23.284;2023-04-05T07:24:09;3.28;;;1.95;;
30818;SDS011;17546;42.674;23.284;2023-04-05T07:26:35;2.00;;;1.40;;
30818;SDS011;17546;42.674;23.284;2023-04-05T07:29:01;2.83;;;1.70;;
30818;SDS011;17546;42.674;23.284;2023-04-05T07:31:30;3.38;;;1.80;;
30818;SDS011;17546;42.674;23.284;2023-04-05T07:33:56;1.85;;;1.50;;
30818;SDS011;17546;42.674;23.284;2023-04-05T07:36:22;3.92;;;1.50;;
30818;SDS011;17546;42.674;23.284;2023-04-05T07:38:48;2.05;;;1.50;;
30818;SDS011;17546;42.674;23.284;2023-04-05T07:41:13;3.47;;;1.80;;
30818;SDS011;17546;42.674;23.284;2023-04-05T07:43:41;3.83;;;2.03;;
30818;SDS011;17546;42.674;23.284;2023-04-05T07:46:06;6.35;;;2.30;;
30818;SDS011;17546;42.674;23.284;2023-04-05T07:48:31;2.88;;;1.70;;
30818;SDS011;17546;42.674;23.284;2023-04-05T07:51:07;4.30;;;2.05;;
30818;SDS011;17546;42.674;23.284;2023-04-05T07:53:34;2.60;;;1.67;;
30818;SDS011;17546;42.674;23.284;2023-04-05T07:56:03;2.55;;;1.58;;
30818;SDS011;17546;42.674;23.284;2023-04-05T07:58:34;4.78;;;1.40;;
30818;SDS011;17546;42.674;23.284;2023-04-05T08:01:00;2.97;;;1.95;;
30818;SDS011;17546;42.674;23.284;2023-04-05T08:03:30;6.55;;;2.35;;
30818;SDS011;17546;42.674;23.284;2023-04-05T08:05:58;5.35;;;2.00;;
30818;SDS011;17546;42.674;23.284;2023-04-05T08:08:24;5.63;;;2.42;;
30818;SDS011;17546;42.674;23.284;2023-04-05T08:10:49;4.53;;;2.20;;
30818;SDS011;17546;42.674;23.284;2023-04-05T08:13:15;3.10;;;1.88;;
30818;SDS011;17546;42.674;23.284;2023-04-05T08:15:41;3.13;;;1.90;;
30818;SDS011;17546;42.674;23.284;2023-04-05T08:18:06;3.80;;;1.80;;
30818;SDS011;17546;42.674;23.284;2023-04-05T08:20:32;2.28;;;1.98;;
30818;SDS011;17546;42.674;23.284;2023-04-05T08:23:03;2.03;;;1.60;;
30818;SDS011;17546;42.674;23.284;2023-04-05T08:25:31;4.00;;;2.10;;
30818;SDS011;17546;42.674;23.284;2023-04-05T08:27:57;3.17;;;1.90;;
30818;SDS011;17546;42.674;23.284;2023-04-05T08:30:22;3.13;;;2.03;;
30818;SDS011;17546;42.674;23.284;2023-04-05T08:32:48;5.05;;;1.98;;
30818;SDS011;17546;42.674;23.284;2023-04-05T08:35:13;5.10;;;1.90;;
30818;SDS011;17546;42.674;23.284;2023-04-05T08:37:40;2.92;;;1.77;;
30818;SDS011;17546;42.674;23.284;2023-04-05T08:40:06;4.88;;;2.10;;
30818;SDS011;17546;42.674;23.284;2023-04-05T08:42:36;2.90;;;1.60;;
30818;SDS011;17546;42.674;23.284;2023-04-05T08:45:08;4.53;;;2.25;;
30818;SDS011;17546;42.674;23.284;2023-04-05T08:47:35;3.15;;;1.80;;
30818;SDS011;17546;42.674;23.284;2023-04-05T08:50:02;2.60;;;1.85;;
30818;SDS011;17546;42.674;23.284;2023-04-05T08:52:30;2.85;;;1.85;;
30818;SDS011;17546;42.674;23.284;2023-04-05T08:54:57;2.53;;;1.88;;
30818;SDS011;17546;42.674;23.284;2023-04-05T08:57:25;4.35;;;2.42;;
30818;SDS011;17546;42.674;23.284;2023-04-05T08:59:55;3.05;;;2.10;;
30818;SDS011;17546;42.674;23.284;2023-04-05T09:02:25;4.55;;;2.05;;
30818;SDS011;17546;42.674;23.284;2023-04-05T09:04:51;5.45;;;2.78;;
30818;SDS011;17546;42.674;23.284;2023-04-05T09:07:17;3.92;;;2.63;;
30818;SDS011;17546;42.674;23.284;2023-04-05T09:09:48;4.28;;;2.47;;
30818;SDS011;17546;42.674;23.284;2023-04-05T09:12:17;3.90;;;2.45;;
30818;SDS011;17546;42.674;23.284;2023-04-05T09:14:45;2.88;;;2.22;;
30818;SDS011;17546;42.674;23.284;2023-04-05T09:17:13;4.20;;;2.63;;
30818;SDS011;17546;42.674;23.284;2023-04-05T09:19:41;6.78;;;3.30;;
30818;SDS011;17546;42.674;23.284;2023-04-05T09:22:07;7.88;;;2.80;;
30818;SDS011;17546;42.674;23.284;2023-04-05T09:24:38;3.67;;;2.65;;
30818;SDS011;17546;42.674;23.284;2023-04-05T09:27:12;6.80;;;2.70;;
30818;SDS011;17546;42.674;23.284;2023-04-05T09:29:39;5.93;;;3.22;;
30818;SDS011;17546;42.674;23.284;2023-04-05T09:32:07;5.15;;;3.00;;
30818;SDS011;17546;42.674;23.284;2023-04-05T09:34:33;7.55;;;3.10;;
30818;SDS011;17546;42.674;23.284;2023-04-05T09:37:10;5.05;;;2.75;;
30818;SDS011;17546;42.674;23.284;2023-04-05T09:39:44;4.25;;;2.58;;
30818;SDS011;17546;42.674;23.284;2023-04-05T09:42:11;4.15;;;2.42;;
30818;SDS011;17546;42.674;23.284;2023-04-05T09:47:20;12.48;;;3.20;;
30818;SDS011;17546;42.674;23.284;2023-04-05T09:49:51;4.30;;;3.28;;
30818;SDS011;17546;42.674;23.284;2023-04-05T09:52:18;4.28;;;2.85;;
30818;SDS011;17546;42.674;23.284;2023-04-05T09:54:51;6.85;;;2.88;;
30818;SDS011;17546;42.674;23.284;2023-04-05T09:57:20;7.00;;;3.00;;
30818;SDS011;17546;42.674;23.284;2023-04-05T09:59:47;7.50;;;2.72;;
30818;SDS011;17546;42.674;23.284;2023-04-05T10:02:13;8.63;;;2.92;;
30818;SDS011;17546;42.674;23.284;2023-04-05T10:04:43;4.60;;;2.92;;
30818;SDS011;17546;42.674;23.284;2023-04-05T10:07:17;5.85;;;2.92;;
30818;SDS011;17546;42.674;23.284;2023-04-05T10:09:46;4.28;;;2.80;;
30818;SDS011;17546;42.674;23.284;2023-04-05T10:12:15;4.70;;;3.20;;
30818;SDS011;17546;42.674;23.284;2023-04-05T10:14:52;8.25;;;3.50;;
30818;SDS011;17546;42.674;23.284;2023-04-05T10:20:13;6.85;;;3.58;;
30818;SDS011;17546;42.674;23.284;2023-04-05T10:28:31;9.07;;;4.43;;
30818;SDS011;17546;42.674;23.284;2023-04-05T10:33:42;7.28;;;4.85;;
30818;SDS011;17546;42.674;23.284;2023-04-05T10:41:15;10.15;;;4.70;;
30818;SDS011;17546;42.674;23.284;2023-04-05T10:43:41;6.93;;;4.70;;
30818;SDS011;17546;42.674;23.284;2023-04-05T10:46:07;9.43;;;4.82;;
30818;SDS011;17546;42.674;23.284;2023-04-05T10:48:53;10.32;;;5.15;;
30818;SDS011;17546;42.674;23.284;2023-04-05T10:51:32;10.43;;;4.43;;
30818;SDS011;17546;42.674;23.284;2023-04-05T10:53:59;9.35;;;4.68;;
30818;SDS011;17546;42.674;23.284;2023-04-05T10:56:25;5.95;;;4.43;;
30818;SDS011;17546;42.674;23.284;2023-04-05T10:58:51;9.73;;;4.35;;
30818;SDS011;17546;42.674;23.284;2023-04-05T11:01:17;8.30;;;4.20;;
30818;SDS011;17546;42.674;23.284;2023-04-05T11:03:45;6.13;;;3.90;;
30818;SDS011;17546;42.674;23.284;2023-04-05T11:06:30;7.28;;;4.78;;
30818;SDS011;17546;42.674;23.284;2023-04-05T11:09:09;9.60;;;5.30;;
30818;SDS011;17546;42.674;23.284;2023-04-05T11:11:42;6.80;;;4.88;;
30818;SDS011;17546;42.674;23.284;2023-04-05T11:16:54;6.35;;;4.63;;
30818;SDS011;17546;42.674;23.284;2023-04-05T11:22:11;7.15;;;5.07;;
30818;SDS011;17546;42.674;23.284;2023-04-05T11:27:23;7.70;;;5.72;;
30818;SDS011;17546;42.674;23.284;2023-04-05T11:29:51;8.15;;;5.72;;
30818;SDS011;17546;42.674;23.284;2023-04-05T11:32:18;9.93;;;5.70;;
30818;SDS011;17546;42.674;23.284;2023-04-05T11:34:46;10.52;;;6.40;;
30818;SDS011;17546;42.674;23.284;2023-04-05T11:37:35;11.50;;;6.00;;
30818;SDS011;17546;42.674;23.284;2023-04-05T11:40:33;11.32;;;6.18;;
30818;SDS011;17546;42.674;23.284;2023-04-05T11:43:04;11.20;;;5.88;;
30818;SDS011;17546;42.674;23.284;2023-04-05T11:45:32;8.90;;;5.65;;
30818;SDS011;17546;42.674;23.284;2023-04-05T11:48:20;10.45;;;6.20;;
30818;SDS011;17546;42.674;23.284;2023-04-05T11:50:46;7.95;;;5.10;;
30818;SDS011;17546;42.674;23.284;2023-04-05T11:53:15;10.77;;;5.97;;
30818;SDS011;17546;42.674;23.284;2023-04-05T11:55:43;13.57;;;6.55;;
30818;SDS011;17546;42.674;23.284;2023-04-05T11:58:14;10.85;;;5.88;;
30818;SDS011;17546;42.674;23.284;2023-04-05T12:00:41;16.33;;;6.55;;
30818;SDS011;17546;42.674;23.284;2023-04-05T12:03:10;11.85;;;6.35;;
30818;SDS011;17546;42.674;23.284;2023-04-05T12:05:52;10.45;;;6.30;;
30818;SDS011;17546;42.674;23.284;2023-04-05T12:08:19;9.25;;;5.88;;
30818;SDS011;17546;42.674;23.284;2023-04-05T12:10:58;6.93;;;4.88;;
30818;SDS011;17546;42.674;23.284;2023-04-05T12:15:57;11.40;;;6.47;;
30818;SDS011;17546;42.674;23.284;2023-04-05T12:18:27;10.10;;;6.30;;
30818;SDS011;17546;42.674;23.284;2023-04-05T12:20:56;9.95;;;6.45;;
30818;SDS011;17546;42.674;23.284;2023-04-05T12:23:22;8.95;;;6.55;;
30818;SDS011;17546;42.674;23.284;2023-04-05T12:25:50;11.50;;;6.43;;
30818;SDS011;17546;42.674;23.284;2023-04-05T12:28:17;10.02;;;6.05;;
30818;SDS011;17546;42.674;23.284;2023-04-05T12:30:55;10.30;;;6.72;;
30818;SDS011;17546;42.674;23.284;2023-04-05T12:33:27;9.80;;;6.97;;
30818;SDS011;17546;42.674;23.284;2023-04-05T12:35:53;8.98;;;5.95;;
30818;SDS011;17546;42.674;23.284;2023-04-05T12:38:19;9.48;;;6.68;;
30818;SDS011;17546;42.674;23.284;2023-04-05T12:40:44;10.43;;;6.50;;
30818;SDS011;17546;42.674;23.284;2023-04-05T12:43:10;11.27;;;7.40;;
30818;SDS011;17546;42.674;23.284;2023-04-05T12:45:36;18.20;;;8.48;;
30818;SDS011;17546;42.674;23.284;2023-04-05T12:48:23;11.10;;;7.30;;
30818;SDS011;17546;42.674;23.284;2023-04-05T12:50:50;11.73;;;7.07;;
30818;SDS011;17546;42.674;23.284;2023-04-05T12:53:17;15.27;;;7.72;;
30818;SDS011;17546;42.674;23.284;2023-04-05T12:55:48;15.05;;;8.43;;
30818;SDS011;17546;42.674;23.284;2023-04-05T12:58:39;13.45;;;7.60;;
30818;SDS011;17546;42.674;23.284;2023-04-05T13:01:04;14.60;;;8.25;;
30818;SDS011;17546;42.674;23.284;2023-04-05T13:03:30;14.75;;;7.60;;
30818;SDS011;17546;42.674;23.284;2023-04-05T13:05:55;10.63;;;7.28;;
30818;SDS011;17546;42.674;23.284;2023-04-05T13:08:20;11.85;;;6.85;;
30818;SDS011;17546;42.674;23.284;2023-04-05T13:10:46;12.23;;;6.10;;
30818;SDS011;17546;42.674;23.284;2023-04-05T13:13:13;11.55;;;6.45;;
30818;SDS011;17546;42.674;23.284;2023-04-05T13:15:40;9.52;;;6.50;;
30818;SDS011;17546;42.674;23.284;2023-04-05T13:18:06;9.65;;;6.25;;
30818;SDS011;17546;42.674;23.284;2023-04-05T13:20:32;12.93;;;6.95;;
30818;SDS011;17546;42.674;23.284;2023-04-05T13:22:58;12.85;;;6.57;;
30818;SDS011;17546;42.674;23.284;2023-04-05T13:25:23;12.50;;;7.28;;
30818;SDS011;17546;42.674;23.284;2023-04-05T13:27:49;11.20;;;7.03;;
30818;SDS011;17546;42.674;23.284;2023-04-05T13:30:15;8.88;;;6.43;;
30818;SDS011;17546;42.674;23.284;2023-04-05T13:32:41;11.23;;;6.40;;
30818;SDS011;17546;42.674;23.284;2023-04-05T13:35:06;8.27;;;5.95;;
30818;SDS011;17546;42.674;23.284;2023-04-05T13:37:32;9.57;;;6.60;;
30818;SDS011;17546;42.674;23.284;2023-04-05T13:39:58;11.88;;;7.30;;
30818;SDS011;17546;42.674;23.284;2023-04-05T13:42:23;13.80;;;6.82;;
30818;SDS011;17546;42.674;23.284;2023-04-05T13:44:49;12.18;;;8.32;;
30818;SDS011;17546;42.674;23.284;2023-04-05T13:47:15;10.88;;;7.40;;
30818;SDS011;17546;42.674;23.284;2023-04-05T13:49:41;12.98;;;7.30;;
30818;SDS011;17546;42.674;23.284;2023-04-05T13:52:06;10.02;;;7.20;;
30818;SDS011;17546;42.674;23.284;2023-04-05T13:54:32;11.80;;;7.25;;
30818;SDS011;17546;42.674;23.284;2023-04-05T13:56:57;12.32;;;7.25;;
30818;SDS011;17546;42.674;23.284;2023-04-05T13:59:23;10.95;;;7.70;;
30818;SDS011;17546;42.674;23.284;2023-04-05T14:01:49;12.27;;;7.35;;
30818;SDS011;17546;42.674;23.284;2023-04-05T14:04:15;12.82;;;7.25;;
30818;SDS011;17546;42.674;23.284;2023-04-05T14:06:40;14.15;;;7.30;;
30818;SDS011;17546;42.674;23.284;2023-04-05T14:09:06;10.52;;;6.93;;
30818;SDS011;17546;42.674;23.284;2023-04-05T14:11:32;10.13;;;6.82;;
30818;SDS011;17546;42.674;23.284;2023-04-05T14:13:58;9.38;;;6.60;;
30818;SDS011;17546;42.674;23.284;2023-04-05T14:16:24;12.43;;;7.43;;
30818;SDS011;17546;42.674;23.284;2023-04-05T14:18:50;10.60;;;6.93;;
30818;SDS011;17546;42.674;23.284;2023-04-05T14:21:15;11.23;;;7.15;;
30818;SDS011;17546;42.674;23.284;2023-04-05T14:23:41;12.02;;;7.35;;
30818;SDS011;17546;42.674;23.284;2023-04-05T14:26:06;14.35;;;8.20;;
30818;SDS011;17546;42.674;23.284;2023-04-05T14:28:32;12.65;;;7.93;;
30818;SDS011;17546;42.674;23.284;2023-04-05T14:30:58;15.13;;;7.82;;
30818;SDS011;17546;42.674;23.284;2023-04-05T14:33:24;43.55;;;14.90;;
30818;SDS011;17546;42.674;23.284;2023-04-05T14:35:51;17.55;;;8.85;;
30818;SDS011;17546;42.674;23.284;2023-04-05T14:38:16;13.38;;;7.90;;
30818;SDS011;17546;42.674;23.284;2023-04-05T14:40:42;14.07;;;8.90;;
30818;SDS011;17546;42.674;23.284;2023-04-05T14:43:07;15.75;;;7.97;;
30818;SDS011;17546;42.674;23.284;2023-04-05T14:45:33;14.95;;;7.88;;
30818;SDS011;17546;42.674;23.284;2023-04-05T14:47:59;12.85;;;7.55;;
30818;SDS011;17546;42.674;23.284;2023-04-05T14:50:25;13.23;;;7.60;;
30818;SDS011;17546;42.674;23.284;2023-04-05T14:52:53;14.00;;;7.60;;
30818;SDS011;17546;42.674;23.284;2023-04-05T14:55:18;13.23;;;8.75;;
30818;SDS011;17546;42.674;23.284;2023-04-05T14:57:44;12.38;;;7.25;;
30818;SDS011;17546;42.674;23.284;2023-04-05T15:00:10;13.82;;;8.85;;
30818;SDS011;17546;42.674;23.284;2023-04-05T15:02:36;17.15;;;9.57;;
30818;SDS011;17546;42.674;23.284;2023-04-05T15:05:02;17.17;;;9.73;;
30818;SDS011;17546;42.674;23.284;2023-04-05T15:07:29;19.30;;;9.80;;
30818;SDS011;17546;42.674;23.284;2023-04-05T15:09:55;16.55;;;9.75;;
30818;SDS011;17546;42.674;23.284;2023-04-05T15:12:20;15.85;;;10.00;;
30818;SDS011;17546;42.674;23.284;2023-04-05T15:14:46;18.98;;;10.85;;